Thursday, July 19, 2018, 1:36 PM EDT
Back to Local

KSEG, Selinsgrove Penn Valley Airport

Location: Selinsgrove, PA, United States Lat: 40.817
Local Time: 1:36 PM EDT (17:36 GMT) Lon: -76.867
Time Zone: US/Eastern Elev: 449 ft

Show me the last for .
Show Decoded

2018-07-19 12:53 METAR KSEG 191653Z AUTO 00000KT 10SM CLR 25/11 A3013 RMK AO2 SLP198 T02500106 =
2018-07-19 11:53 METAR KSEG 191553Z AUTO 16005KT 10SM CLR 24/11 A3014 RMK AO2 SLP203 T02390106 =
2018-07-19 10:53 METAR KSEG 191453Z AUTO 00000KT 10SM CLR 23/11 A3014 RMK AO2 SLP203 T02280106
                 58000 =
2018-07-19 09:53 METAR KSEG 191353Z AUTO 00000KT 10SM CLR 21/13 A3014 RMK AO2 SLP205 T02110133 =
2018-07-19 08:53 METAR KSEG 191253Z AUTO 00000KT 10SM CLR 19/13 A3014 RMK AO2 SLP205 T01890133 =
2018-07-19 07:53 METAR KSEG 191153Z AUTO 00000KT 10SM CLR 17/13 A3014 RMK AO2 SLP204 T01670133
                 10167 20122 51014 =
2018-07-19 06:53 METAR KSEG 191053Z AUTO 00000KT 10SM CLR 13/12 A3013 RMK AO2 SLP201 T01330122 =
2018-07-19 05:53 METAR KSEG 190953Z AUTO 00000KT 10SM CLR 13/12 A3012 RMK AO2 SLP196 T01280117 =
2018-07-19 04:53 METAR KSEG 190853Z AUTO 00000KT 10SM CLR 13/12 A3010 RMK AO2 SLP190 T01280122
                 53007 =
2018-07-19 03:53 METAR KSEG 190753Z AUTO 00000KT 10SM CLR 13/13 A3009 RMK AO2 SLP185 T01330128 =
2018-07-19 02:53 METAR KSEG 190653Z AUTO 32003KT 10SM CLR 14/13 A3009 RMK AO2 SLP185 T01440128 =
2018-07-19 01:53 METAR KSEG 190553Z AUTO 33003KT 10SM CLR 15/14 A3008 RMK AO2 SLP182 T01500139
                 10244 20150 53016 =
2018-07-19 00:53 METAR KSEG 190453Z AUTO 32003KT 10SM CLR 17/14 A3006 RMK AO2 SLP177 T01670139
                 402830150 =
2018-07-18 23:53 METAR KSEG 190353Z AUTO 32003KT 10SM CLR 17/14 A3004 RMK AO2 SLP170 T01670144 =
2018-07-18 22:53 METAR KSEG 190253Z AUTO 32003KT 10SM CLR 18/15 A3003 RMK AO2 SLP166 T01830150
                 53018 =
2018-07-18 21:53 METAR KSEG 190153Z AUTO 00000KT 10SM CLR 18/16 A3001 RMK AO2 SLP160 T01830156 =
2018-07-18 20:53 METAR KSEG 190053Z AUTO 00000KT 10SM CLR 19/16 A2998 RMK AO2 SLP151 T01940161 =
2018-07-18 19:53 METAR KSEG 182353Z AUTO 33003KT 10SM CLR 24/16 A2997 RMK AO2 SLP147 T02440161
                 10283 20244 55000 =
2018-07-18 18:53 METAR KSEG 182253Z AUTO 32007KT 10SM CLR 27/12 A2997 RMK AO2 SLP146 T02670122 =
2018-07-18 17:53 METAR KSEG 182153Z AUTO 03007KT 10SM CLR 28/13 A2997 RMK AO2 SLP144 T02780128 =
2018-07-18 16:53 METAR KSEG 182053Z AUTO 36008KT 10SM BKN070 28/13 A2997 RMK AO2 SLP147 T02780128
                 58005 =
2018-07-18 15:53 METAR KSEG 181953Z AUTO 10SM CLR 28/13 A2998 RMK AO2 SLP149 T02830128 =
2018-07-18 14:53 METAR KSEG 181853Z AUTO 34007KT 10SM SCT055 BKN080 26/14 A2999 RMK AO2 SLP152
                 T02560139 =
2018-07-18 13:53 METAR KSEG 181753Z AUTO 36007KT 10SM FEW049 FEW060 BKN075 26/14 A2999 RMK AO2
                 SLP152 T02610144 10272 20194 58007 =

Support USWX by starting your Amazon purchase here.